Terminal Aerodrome Forecast
Issued by NWS Bismarck, ND

Home | Current Version | Previous Version | Graphics & Text | Print | Product List | Glossary On
Versions: 1 2 3 4 5 6 7 8 9 10 11 12 13 14 15
000
FTUS43 KBIS 310500
TAFBIS
TAF
KBIS 310536Z 3106/0106 11008KT P6SM -TSRA SCT025 OVC045CB
      TEMPO 3106/3107 5SM +TSRA BKN025CB OVC045
     FM310800 11007KT P6SM VCSH BKN040
     FM311100 35006KT 5SM BR SCT012 BKN030
     FM311500 31009KT P6SM BKN045
     FM010000 29006KT P6SM SCT150=

USA.gov is the U.S. government's official web portal to all federal, state and local government web resources and services.